Have a Safe July 4th! 

Flight Track Log - Related Links

Times and Time Zones

All times are in EDT time to prevent confusion due to time zone crossing. See the ASH3770 flight status page for this flight to view local times or setup timezone preferences in your user account.

Time Position Orientation Groundspeed Altitude Reporting Facility
EDT Latitude Longitude Course Direction KTS MPH feet Rate Location/Type
Tue 12:47:32 PM 38.9333 -77.5833 263° West 236 272 3,100  Level Potomac TRACON
Tue 12:48:43 PM 38.9244 -77.6808 263° West 254 292 6,500 2,061 Climbing Washington Center
Tue 12:49:43 PM 38.8897 -77.7625 241° Southwest 281 323 7,600 1,700 Climbing Washington Center
Tue 12:50:43 PM 38.8383 -77.8356 228° Southwest 276 318 9,900 2,450 Climbing Washington Center
Tue 12:51:43 PM 38.8158 -77.9175 251° West 250 288 12,500 2,450 Climbing Washington Center
Tue 12:52:43 PM 38.8286 -78.0114 280° West 250 288 14,800 1,750 Climbing Washington Center
Tue 12:53:43 PM 38.8450 -78.1211 281° West 299 344 16,000 1,400 Climbing Washington Center
Tue 12:54:43 PM 38.8531 -78.2386 275° West 330 380 17,600 1,800 Climbing Washington Center
Tue 12:55:43 PM 38.8522 -78.3639 270° West 347 399 19,600 1,650 Climbing Washington Center
Tue 12:56:43 PM 38.8514 -78.4919 270° West 352 405 20,900 1,450 Climbing Washington Center
Tue 12:57:43 PM 38.8544 -78.6172 272° West 379 436 22,500 1,550 Climbing Washington Center
Tue 12:58:43 PM 38.8511 -78.7478 268° West 384 442 24,000 1,550 Climbing Washington Center
Tue 12:59:43 PM 38.8453 -78.8942 267° West 377 434 25,600 1,350 Climbing Washington Center
Tue 01:00:43 PM 38.8433 -79.0300 269° West 377 434 26,700 1,050 Climbing Washington Center
Tue 01:01:43 PM 38.8453 -79.1794 271° West 394 453 27,700 1,250 Climbing Washington Center
Tue 01:02:43 PM 38.8244 -79.3194 259° West 406 467 29,200 1,350 Climbing Washington Center
Tue 01:03:43 PM 38.8017 -79.4436 257° West 406 467 30,400 1,250 Climbing Washington Center
Tue 01:04:43 PM 38.7683 -79.5750 252° West 400 460 31,700 1,150 Climbing Washington Center
Tue 01:05:43 PM 38.7142 -79.6972 240° Southwest 400 460 32,700 900 Climbing Washington Center
Tue 01:06:43 PM 38.6658 -79.8219 244° Southwest 395 455 33,500 950 Climbing Washington Center
Tue 01:07:43 PM 38.6317 -79.9664 253° West 395 455 34,600 1,050 Climbing Washington Center
Tue 01:08:43 PM 38.6017 -80.1000 254° West 390 449 35,600 402 Climbing Washington Center
Tue 01:11:12 PM 38.5211 -80.4331 253° West 409 471 36,000 114 Climbing Indianapolis Center
Tue 01:12:14 PM 38.4894 -80.5686 253° West 423 487 36,000  Level Indianapolis Center
Tue 01:13:16 PM 38.4553 -80.7161 254° West 429 494 36,000  Level Indianapolis Center
Tue 01:14:18 PM 38.4194 -80.8619 253° West 429 494 36,000 339 Level Indianapolis Center
Tue 01:15:20 PM 38.3850 -81.0067 253° West 425 489 36,700 774 Climbing Indianapolis Center
Tue 01:16:22 PM 38.3436 -81.1778 253° West 419 482 37,600 629 Climbing Indianapolis Center
Tue 01:17:24 PM 38.3089 -81.3178 252° West 414 476 38,000 194 Climbing Indianapolis Center
Tue 01:18:26 PM 38.2750 -81.4603 253° West 417 480 38,000  Level Indianapolis Center
Tue 01:19:28 PM 38.2389 -81.6042 252° West 423 487 38,000  Level Indianapolis Center
Tue 01:20:30 PM 38.2039 -81.7489 253° West 425 489 38,000  Level Indianapolis Center
Tue 01:21:32 PM 38.1669 -81.8936 252° West 428 493 38,000  Level Indianapolis Center
Tue 01:22:34 PM 38.1314 -82.0397 253° West 432 497 38,000  Level Indianapolis Center
Tue 01:23:36 PM 38.0911 -82.2028 253° West 428 493 38,000  Level Indianapolis Center
Tue 01:24:38 PM 38.0550 -82.3469 252° West 428 493 38,000  Level Indianapolis Center
Tue 01:25:40 PM 38.0181 -82.4894 252° West 426 490 38,000  Level Indianapolis Center
Tue 01:26:42 PM 37.9817 -82.6322 252° West 426 490 38,000  Level Indianapolis Center
Tue 01:27:44 PM 37.9394 -82.7983 252° West 424 488 38,000  Level Indianapolis Center
Tue 01:28:46 PM 37.9028 -82.9408 252° West 425 489 38,000  Level Indianapolis Center
Tue 01:29:48 PM 37.8661 -83.0811 252° West 422 486 38,000  Level Indianapolis Center
Tue 01:30:50 PM 37.8286 -83.2214 251° West 421 484 38,000  Level Indianapolis Center
Tue 01:31:52 PM 37.7919 -83.3639 252° West 425 489 38,000  Level Indianapolis Center
Tue 01:32:54 PM 37.7475 -83.5278 251° West 425 489 38,000  Level Indianapolis Center
Tue 01:33:56 PM 37.7097 -83.6703 252° West 427 491 38,000  Level Indianapolis Center
Tue 01:34:58 PM 37.6711 -83.8125 251° West 428 493 38,000  Level Indianapolis Center
Tue 01:36:00 PM 37.6347 -83.9536 252° West 426 490 38,000  Level Indianapolis Center
Tue 01:37:01 PM 37.5950 -84.0972 251° West 430 495 38,000  Level Indianapolis Center
Tue 01:38:03 PM 37.5569 -84.2403 251° West 430 495 38,000  Level Indianapolis Center
Tue 01:39:05 PM 37.5103 -84.4064 251° West 431 496 38,000  Level Indianapolis Center
Tue 01:40:07 PM 37.4717 -84.5475 251° West 428 493 38,000  Level Indianapolis Center
Tue 01:41:09 PM 37.4331 -84.6914 251° West 432 497 38,000  Level Indianapolis Center
Tue 01:42:11 PM 37.3928 -84.8322 250° West 429 494 38,000  Level Indianapolis Center
Tue 01:43:13 PM 37.3528 -84.9753 251° West 432 497 38,000  Level Indianapolis Center
Tue 01:44:15 PM 37.3067 -85.1389 251° West 428 493 38,000  Level Indianapolis Center
Tue 01:45:17 PM 37.2661 -85.2789 250° West 426 490 38,000  Level Indianapolis Center
Tue 01:46:18 PM 37.2269 -85.4189 251° West 425 489 38,000  Level Indianapolis Center
Tue 01:47:20 PM 37.1889 -85.5497 250° West 424 488 38,000  Level Indianapolis Center
Tue 01:48:08 PM 37.1578 -85.6669 252° West 430 495 38,000  Level Memphis Center
Tue 01:49:08 PM 37.1133 -85.8178 250° West 435 501 38,000  Level Memphis Center
Tue 01:50:08 PM 37.0706 -85.9581 249° West 435 501 38,000  Level Memphis Center
Tue 01:51:08 PM 37.0317 -86.0978 251° West 435 501 38,000  Level Memphis Center
Tue 01:52:08 PM 36.9903 -86.2325 249° West 435 501 38,000  Level Memphis Center
Tue 01:53:08 PM 36.9511 -86.3722 251° West 430 495 38,000  Level Memphis Center
Tue 01:54:08 PM 36.8992 -86.5044 244° Southwest 430 495 38,000  Level Memphis Center
Tue 01:55:08 PM 36.8342 -86.6267 236° Southwest 430 495 38,000  Level Memphis Center
Tue 01:56:08 PM 36.7689 -86.7517 237° Southwest 436 502 38,000  Level Memphis Center
Tue 01:57:08 PM 36.7017 -86.8711 235° Southwest 430 495 38,000  Level Memphis Center
Tue 01:58:08 PM 36.6361 -86.9953 237° Southwest 430 495 38,000  Level Memphis Center
Tue 01:59:08 PM 36.5686 -87.1197 236° Southwest 430 495 38,000  Level Memphis Center
Tue 02:00:08 PM 36.5031 -87.2436 237° Southwest 430 495 38,000  Level Memphis Center
Tue 02:01:08 PM 36.4350 -87.3647 235° Southwest 430 495 38,000  Level Memphis Center
Tue 02:02:08 PM 36.3672 -87.4858 235° Southwest 430 495 38,000  Level Memphis Center
Tue 02:03:08 PM 36.2989 -87.6042 234° Southwest 430 495 38,000  Level Memphis Center
Tue 02:04:08 PM 36.2347 -87.7222 236° Southwest 430 495 38,000  Level Memphis Center
Tue 02:05:08 PM 36.1744 -87.8294 235° Southwest 423 487 38,000  Level Memphis Center
Tue 02:06:08 PM 36.1081 -87.9522 236° Southwest 428 493 38,000  Level Memphis Center
Tue 02:07:08 PM 36.0417 -88.0697 235° Southwest 428 493 38,000  Level Memphis Center
Tue 02:08:08 PM 35.9811 -88.1817 236° Southwest 423 487 38,000  Level Memphis Center
Tue 02:09:08 PM 35.9122 -88.2989 234° Southwest 423 487 38,000  Level Memphis Center
Tue 02:10:08 PM 35.8472 -88.4158 236° Southwest 423 487 38,000  Level Memphis Center
Tue 02:11:08 PM 35.7803 -88.5325 235° Southwest 423 487 38,000  Level Memphis Center
Tue 02:12:08 PM 35.7153 -88.6517 236° Southwest 428 493 38,000  Level Memphis Center
Tue 02:13:08 PM 35.6500 -88.7653 235° Southwest 428 493 38,000  Level Memphis Center
Tue 02:14:08 PM 35.5786 -88.8944 236° Southwest 428 493 38,000  Level Memphis Center
Tue 02:15:08 PM 35.5131 -89.0078 235° Southwest 423 487 38,000  Level Memphis Center
Tue 02:16:08 PM 35.4475 -89.1208 235° Southwest 423 487 38,000  Level Memphis Center
Tue 02:17:08 PM 35.3819 -89.2367 235° Southwest 423 487 38,000  Level Memphis Center
Tue 02:18:08 PM 35.3161 -89.3519 235° Southwest 418 481 38,000  Level Memphis Center
Tue 02:19:08 PM 35.2481 -89.4672 234° Southwest 418 481 38,000  Level Memphis Center
Tue 02:20:08 PM 35.1842 -89.5797 235° Southwest 418 481 38,000  Level Memphis Center
Tue 02:21:08 PM 35.1203 -89.6944 236° Southwest 418 481 38,000  Level Memphis Center
Tue 02:22:08 PM 35.0542 -89.8117 235° Southwest 424 488 38,000  Level Memphis Center
Tue 02:23:08 PM 34.9858 -89.9311 235° Southwest 424 488 38,000  Level Memphis Center
Tue 02:24:08 PM 34.9153 -90.0456 233° Southwest 424 488 38,000  Level Memphis Center
Tue 02:25:08 PM 34.8467 -90.1572 233° Southwest 429 494 38,000  Level Memphis Center
Tue 02:26:08 PM 34.7778 -90.2736 234° Southwest 429 494 38,000  Level Memphis Center
Tue 02:27:08 PM 34.7194 -90.3722 234° Southwest 429 494 38,000  Level Memphis Center
Tue 02:28:08 PM 34.6506 -90.4858 234° Southwest 429 494 38,000  Level Memphis Center
Tue 02:29:08 PM 34.5836 -90.6019 235° Southwest 429 494 38,000  Level Memphis Center
Tue 02:30:08 PM 34.5125 -90.7150 233° Southwest 429 494 38,000  Level Memphis Center
Tue 02:31:08 PM 34.4453 -90.8256 234° Southwest 429 494 38,000  Level Memphis Center
Tue 02:32:08 PM 34.3781 -90.9383 234° Southwest 429 494 38,000  Level Memphis Center
Tue 02:33:08 PM 34.3128 -91.0486 234° Southwest 424 488 38,000  Level Memphis Center
Tue 02:34:08 PM 34.2369 -91.1711 233° Southwest 424 488 38,000  Level Memphis Center
Tue 02:35:08 PM 34.1672 -91.2836 233° Southwest 419 482 38,000  Level Memphis Center
Tue 02:36:08 PM 34.1017 -91.3906 234° Southwest 414 476 38,000  Level Memphis Center
Tue 02:37:09 PM 34.0339 -91.5025 234° Southwest 414 476 38,000  Level Memphis Center
Tue 02:38:09 PM 33.9661 -91.6119 233° Southwest 414 476 38,000  Level Memphis Center
Tue 02:40:08 PM 33.8358 -91.8225 233° Southwest 395 455 38,000  Level Fort Worth Center
Tue 02:41:08 PM 33.7719 -91.9317 235° Southwest 395 455 38,000  Level Fort Worth Center
Tue 02:42:07 PM 33.7036 -92.0383 232° Southwest 401 461 38,000  Level Fort Worth Center
Tue 02:43:08 PM 33.6372 -92.1469 234° Southwest 407 468 38,000  Level Fort Worth Center
Tue 02:44:07 PM 33.5667 -92.2558 232° Southwest 407 468 38,000  Level Fort Worth Center
Tue 02:45:08 PM 33.5000 -92.3644 234° Southwest 407 468 38,000  Level Fort Worth Center
Tue 02:46:08 PM 33.4353 -92.4703 234° Southwest 407 468 38,000  Level Fort Worth Center
Tue 02:47:08 PM 33.3625 -92.5786 231° Southwest 407 468 38,000  Level Fort Worth Center
Tue 02:48:08 PM 33.2956 -92.6842 233° Southwest 407 468 38,000  Level Fort Worth Center
Tue 02:49:08 PM 33.2414 -92.8039 242° Southwest 407 468 38,000  Level Fort Worth Center
Tue 02:50:08 PM 33.1958 -92.9278 246° West 407 468 38,000  Level Fort Worth Center
Tue 02:51:07 PM 33.1603 -93.0414 250° West 407 468 38,000  Level Fort Worth Center
Tue 02:52:08 PM 33.1167 -93.1675 248° West 407 468 38,000  Level Fort Worth Center
Tue 02:53:07 PM 33.0728 -93.2911 247° West 407 468 38,000  Level Fort Worth Center
Tue 02:54:07 PM 33.0331 -93.4167 249° West 412 474 38,000  Level Fort Worth Center
Tue 02:55:08 PM 32.9869 -93.5475 247° West 418 481 38,000  Level Fort Worth Center
Tue 02:56:07 PM 32.9450 -93.6756 249° West 423 487 38,000  Level Fort Worth Center
Tue 02:57:08 PM 32.8986 -93.8036 247° West 423 487 38,000  Level Fort Worth Center
Tue 02:58:08 PM 32.8564 -93.9339 249° West 423 487 38,000  Level Fort Worth Center
Tue 02:59:08 PM 32.8117 -94.0617 247° West 423 487 38,000  Level Fort Worth Center
Tue 03:00:07 PM 32.7692 -94.1894 248° West 423 487 38,000  Level Fort Worth Center
Tue 03:01:08 PM 32.7244 -94.3169 247° West 423 487 38,000  Level Fort Worth Center
Tue 03:02:07 PM 32.6794 -94.4467 248° West 423 487 38,000  Level Fort Worth Center
Tue 03:03:07 PM 32.6344 -94.5764 248° West 423 487 38,000  Level Fort Worth Center
Tue 03:04:07 PM 32.5892 -94.7011 247° West 423 487 38,000  Level Fort Worth Center
Tue 03:05:07 PM 32.5439 -94.8306 247° West 423 487 38,000  Level Fort Worth Center
Tue 03:06:07 PM 32.4983 -94.9600 247° West 423 487 38,000  Level Fort Worth Center
Tue 03:07:07 PM 32.4572 -95.0917 250° West 423 487 38,000  Level Fort Worth Center
Tue 03:08:07 PM 32.4114 -95.2183 247° West 418 481 38,000  Level Fort Worth Center
Tue 03:09:07 PM 32.3656 -95.3475 247° West 418 481 38,000  Level Fort Worth Center
Tue 03:10:08 PM 32.3156 -95.4861 247° West 418 481 38,000  Level Fort Worth Center
Tue 03:11:07 PM 32.2714 -95.6125 248° West 418 481 38,000  Level Fort Worth Center
Tue 03:12:08 PM 32.2253 -95.7386 247° West 425 489 38,000  Level Fort Worth Center
Tue 03:13:08 PM 32.1789 -95.8669 247° West 425 489 38,000  Level Fort Worth Center
Tue 03:14:07 PM 32.1322 -95.9928 246° West 420 483 38,000  Level Fort Worth Center
Tue 03:15:07 PM 32.0878 -96.1161 247° West 420 483 38,000  Level Fort Worth Center
Tue 03:16:08 PM 32.0431 -96.2419 247° West 420 483 38,000  Level Fort Worth Center
Tue 03:17:08 PM 31.9939 -96.3675 245° Southwest 420 483 38,000  Level Fort Worth Center
Tue 03:18:07 PM 31.9531 -96.4781 247° West 420 483 38,000 -200 Level Fort Worth Center
Tue 03:19:08 PM 31.9144 -96.6181 252° West 420 483 37,600 -992 Descending Fort Worth Center
Tue 03:20:08 PM 31.8942 -96.7503 260° West 413 475 36,000 -800 Descending Fort Worth Center
Tue 03:21:08 PM 31.8761 -96.8825 261° West 408 470 36,000 -600 Level Fort Worth Center
Tue 03:22:08 PM 31.8431 -96.9975 251° West 408 470 34,800 -1,613 Descending Fort Worth Center
Tue 03:23:07 PM 31.7556 -97.0836 220° Southwest 402 463 32,800 -2,000 Descending Fort Worth Center
Tue 03:24:08 PM 31.6367 -97.1156 193° South 402 463 30,800 -2,132 Descending Fort Worth Center
Tue 03:24:23 PM 31.5986 -97.1225 189° South 437 503 30,100 -3,117 Descending Houston Center
Tue 03:25:25 PM 31.4792 -97.1486 191° South 435 501 26,800 -3,339 Descending Houston Center
Tue 03:26:27 PM 31.3642 -97.1747 191° South 421 484 23,200 -3,048 Descending Houston Center
Tue 03:27:29 PM 31.2556 -97.1986 191° South 399 459 20,500 -2,304 Descending Houston Center
Tue 03:28:32 PM 31.1556 -97.2297 195° South 373 429 18,400 -2,208 Descending Houston Center
Tue 03:29:34 PM 31.0444 -97.2731 198° South 359 413 15,900 -2,177 Descending Houston Center
Tue 03:30:36 PM 30.9561 -97.3078 199° South 347 399 13,900 -1,403 Descending Houston Center
Tue 03:31:38 PM 30.8678 -97.3406 198° South 340 391 13,000 -968 Descending Houston Center
Tue 03:32:40 PM 30.7778 -97.3747 198° South 340 391 11,900 -1,210 Descending Houston Center
Tue 03:33:42 PM 30.7147 -97.4617 230° Southwest 294 338 10,500 -1,597 Descending Houston Center
Tue 03:34:44 PM 30.6756 -97.5294 236° Southwest 259 298 8,600 -1,887 Descending Houston Center
Tue 03:35:46 PM 30.6114 -97.5611 203° Southwest 248 285 6,600 -1,536 Descending Houston Center
Tue 03:36:49 PM 30.5486 -97.5894 201° Southwest 242 278 5,400 -1,056 Descending Houston Center
Tue 03:37:51 PM 30.4892 -97.6164 201° Southwest 231 266 4,400 -726 Descending Houston Center
Tue 03:38:53 PM 30.4286 -97.6508 206° Southwest 236 272 3,900 -774 Descending Houston Center
Tue 03:39:55 PM 30.3692 -97.6828 205° Southwest 235 270 2,800 -726 Descending Houston Center
Tue 03:40:57 PM 30.3033 -97.6814 179° South 206 237 2,400 -581 Descending Houston Center
Tue 03:41:59 PM 30.2592 -97.6803 179° South 176 203 1,600 -774 Descending Houston Center

Login

Don't have an account? Register now (free) for customized features, flight alerts, and more!